createdAt,value
2022-11-28T00:01:50.661Z,4.03
2022-11-28T00:07:55.733Z,5.72
2022-11-28T00:13:59.179Z,5.13
2022-11-28T00:20:02.583Z,5.45
2022-11-28T00:26:08.641Z,3.45
2022-11-28T00:32:12.287Z,4.63
2022-11-28T00:38:15.713Z,6.95
2022-11-28T00:44:20.866Z,6.75
2022-11-28T00:50:24.421Z,6.68
2022-11-28T00:56:29.619Z,6.45
2022-11-28T01:02:34.652Z,6.70
2022-11-28T01:08:38.265Z,6.63
2022-11-28T01:14:41.993Z,6.53
2022-11-28T01:20:46.971Z,6.65
2022-11-28T01:26:50.399Z,6.82
2022-11-28T01:32:53.791Z,7.00
2022-11-28T01:38:58.574Z,7.18
2022-11-28T01:45:10.117Z,9.23
2022-11-28T01:51:13.981Z,9.23
2022-11-28T01:57:20.362Z,9.90
2022-11-28T02:03:26.755Z,10.18
2022-11-28T02:09:30.445Z,9.82
2022-11-28T02:15:44.010Z,9.70
2022-11-28T02:21:54.799Z,11.68
2022-11-28T02:28:26.250Z,10.68
2022-11-28T02:34:32.995Z,10.18
2022-11-28T02:40:39.805Z,10.65
2022-11-28T02:46:46.038Z,9.30
2022-11-28T02:52:52.268Z,10.30
2022-11-28T02:58:55.622Z,11.38
2022-11-28T03:05:01.167Z,11.18
2022-11-28T03:11:08.306Z,10.13
2022-11-28T03:17:15.197Z,10.20
2022-11-28T03:23:21.634Z,10.38
2022-11-28T03:29:29.915Z,10.10
2022-11-28T03:35:35.454Z,10.02
2022-11-28T03:41:40.514Z,10.13
2022-11-28T03:47:46.453Z,9.65
2022-11-28T03:53:53.232Z,9.15
2022-11-28T03:59:57.129Z,9.23
2022-11-28T04:06:04.539Z,8.95
2022-11-28T04:12:11.638Z,8.95
2022-11-28T04:18:27.281Z,8.40
2022-11-28T04:24:33.804Z,8.55
2022-11-28T04:30:38.252Z,7.63
2022-11-28T04:36:44.289Z,6.50
2022-11-28T04:42:53.034Z,7.53
2022-11-28T04:48:56.593Z,8.15
2022-11-28T04:55:02.533Z,7.15
2022-11-28T05:01:09.621Z,6.75
2022-11-28T05:07:13.095Z,6.57
2022-11-28T05:13:17.062Z,7.40
2022-11-28T05:19:22.338Z,7.20
2022-11-28T05:25:25.813Z,6.90
2022-11-28T05:31:29.804Z,7.63
2022-11-28T05:37:34.567Z,7.35
2022-11-28T05:43:37.991Z,7.47
2022-11-28T05:49:41.912Z,8.77
2022-11-28T05:55:47.101Z,11.52
2022-11-28T06:01:50.472Z,11.93
2022-11-28T06:07:53.989Z,9.50
2022-11-28T06:13:58.759Z,9.40
2022-11-28T06:20:02.113Z,10.35
2022-11-28T06:26:06.461Z,8.30
2022-11-28T06:32:11.513Z,7.43
2022-11-28T06:38:14.895Z,6.60
2022-11-28T06:44:18.891Z,7.43
2022-11-28T06:50:23.611Z,6.55
2022-11-28T06:56:27.221Z,5.88
2022-11-28T07:02:30.715Z,5.38
2022-11-28T07:08:35.739Z,5.38
2022-11-28T07:14:39.527Z,5.32
2022-11-28T07:20:42.913Z,4.50
2022-11-28T07:26:48.012Z,5.22
2022-11-28T07:32:51.361Z,4.25
2022-11-28T07:38:55.619Z,3.90
2022-11-28T07:45:00.411Z,4.63
2022-11-28T07:51:06.978Z,4.90
2022-11-28T07:57:12.650Z,5.35
2022-11-28T08:03:18.220Z,6.75
2022-11-28T08:09:21.573Z,5.85
2022-11-28T08:15:24.916Z,4.93
2022-11-28T08:21:30.215Z,5.88
2022-11-28T08:27:33.976Z,5.28
2022-11-28T08:33:37.634Z,5.00
2022-11-28T08:39:42.556Z,4.90
2022-11-28T08:45:46.691Z,5.78
2022-11-28T08:51:50.218Z,5.15
2022-11-28T08:57:55.109Z,5.82
2022-11-28T09:03:58.710Z,7.18
2022-11-28T09:10:02.356Z,7.95
2022-11-28T09:16:07.714Z,8.48
2022-11-28T09:22:11.064Z,10.35
2022-11-28T09:28:14.458Z,8.90
2022-11-28T09:34:19.203Z,9.10
2022-11-28T09:40:27.367Z,9.75
2022-11-28T09:46:34.237Z,10.70
2022-11-28T09:52:42.126Z,10.98
2022-11-28T09:58:49.691Z,13.60
2022-11-28T10:04:56.107Z,12.52
2022-11-28T10:11:03.777Z,14.18
2022-11-28T10:17:13.784Z,16.63
2022-11-28T10:23:20.081Z,15.73
2022-11-28T10:29:27.263Z,11.60
2022-11-28T10:35:35.105Z,11.40
2022-11-28T10:41:40.453Z,11.77
2022-11-28T10:48:07.499Z,12.98
2022-11-28T10:54:27.768Z,13.85
2022-11-28T11:00:45.303Z,13.38
2022-11-28T11:07:08.812Z,11.50
2022-11-28T11:13:15.459Z,14.63
2022-11-28T11:19:27.379Z,13.00
2022-11-28T11:25:31.338Z,10.77
2022-11-28T11:31:40.461Z,13.15
2022-11-28T11:37:45.250Z,12.82
2022-11-28T11:43:48.588Z,12.95
2022-11-28T11:49:52.202Z,12.38
2022-11-28T11:55:57.705Z,12.57
2022-11-28T12:02:02.403Z,12.13
2022-11-28T12:08:14.123Z,12.68
2022-11-28T12:14:30.511Z,12.60
2022-11-28T12:20:38.623Z,12.70
2022-11-28T12:26:46.233Z,12.65
2022-11-28T12:32:58.201Z,12.85
2022-11-28T12:39:05.690Z,26.55
2022-11-28T12:45:16.451Z,17.20
2022-11-28T12:51:24.631Z,28.60
2022-11-28T12:57:33.421Z,13.05
2022-11-28T13:03:42.250Z,13.07
2022-11-28T13:09:50.985Z,11.30
2022-11-28T13:16:00.404Z,13.27
2022-11-28T13:22:07.200Z,11.05
2022-11-28T13:28:15.134Z,11.15
2022-11-28T13:34:19.925Z,10.57
2022-11-28T13:40:26.868Z,10.32
2022-11-28T13:46:31.844Z,9.00
2022-11-28T13:52:43.379Z,9.30
2022-11-28T13:58:49.457Z,8.18
2022-11-28T14:04:54.294Z,7.35
2022-11-28T14:11:07.262Z,8.63
2022-11-28T14:17:17.552Z,7.93
2022-11-28T14:23:27.238Z,6.97
2022-11-28T14:29:38.843Z,8.45
2022-11-28T14:36:00.630Z,7.80
2022-11-28T14:49:32.342Z,7.13
2022-11-28T14:55:35.743Z,8.70
2022-11-28T15:01:47.194Z,9.20
2022-11-28T15:08:01.558Z,7.15
2022-11-28T15:14:10.058Z,6.85
2022-11-28T15:20:20.002Z,7.57
2022-11-28T15:26:24.904Z,8.07
2022-11-28T15:32:29.184Z,8.00
2022-11-28T15:38:34.000Z,9.45
2022-11-28T15:44:37.774Z,9.93
2022-11-28T15:50:51.295Z,14.55
2022-11-28T15:57:05.302Z,11.63
2022-11-28T16:03:09.112Z,11.48
2022-11-28T16:09:26.819Z,7.88
2022-11-28T16:15:32.132Z,8.65
2022-11-28T16:21:37.854Z,7.72
2022-11-28T16:27:42.622Z,10.45
2022-11-28T16:33:47.921Z,11.82
2022-11-28T16:40:00.663Z,16.70
2022-11-28T16:46:06.495Z,9.00
2022-11-28T16:52:30.803Z,7.55
2022-11-28T16:58:35.526Z,8.32
2022-11-28T17:04:39.546Z,15.32
2022-11-28T17:10:43.019Z,15.15
2022-11-28T17:16:48.404Z,13.38
2022-11-28T17:22:54.431Z,13.77
2022-11-28T17:28:58.976Z,12.55
2022-11-28T17:35:04.210Z,11.57
2022-11-28T17:41:08.955Z,13.07
2022-11-28T17:47:12.450Z,14.75
2022-11-28T17:53:18.188Z,13.43
2022-11-28T17:59:24.275Z,16.52
2022-11-28T18:05:27.779Z,18.92
2022-11-28T18:11:32.501Z,18.98
2022-11-28T18:17:35.889Z,15.57
2022-11-28T18:23:39.699Z,14.68
2022-11-28T18:29:45.123Z,14.05
2022-11-28T18:35:48.759Z,15.75
2022-11-28T18:41:52.262Z,21.35
2022-11-28T18:48:00.230Z,29.17
2022-11-28T18:54:05.202Z,18.60
2022-11-28T19:00:09.621Z,15.35
2022-11-28T19:06:14.498Z,15.38
2022-11-28T19:12:19.099Z,15.52
2022-11-28T19:18:22.523Z,13.35
2022-11-28T19:24:27.322Z,15.93
2022-11-28T19:30:30.670Z,20.73
2022-11-28T19:36:34.856Z,18.13
2022-11-28T19:42:39.721Z,17.48
2022-11-28T19:48:43.752Z,17.95
2022-11-28T19:54:47.271Z,16.63
2022-11-28T20:00:52.387Z,14.77
2022-11-28T20:06:55.847Z,13.27
2022-11-28T20:12:59.553Z,15.55
2022-11-28T20:19:04.570Z,17.77
2022-11-28T20:25:08.591Z,13.43
2022-11-28T20:31:18.579Z,20.88
2022-11-28T20:37:23.685Z,14.63
2022-11-28T20:43:27.076Z,17.13
2022-11-28T20:49:30.464Z,21.97
2022-11-28T20:55:35.353Z,13.07
2022-11-28T21:01:38.973Z,12.90
2022-11-28T21:07:42.399Z,20.85
2022-11-28T21:13:48.062Z,17.10
2022-11-28T21:19:51.466Z,16.33
2022-11-28T21:25:54.838Z,18.27
2022-11-28T21:31:59.653Z,16.10
2022-11-28T21:38:03.069Z,16.80
2022-11-28T21:44:06.526Z,15.23
2022-11-28T21:50:11.924Z,21.02
2022-11-28T21:56:15.345Z,19.70
2022-11-28T22:02:19.301Z,16.67
2022-11-28T22:08:24.099Z,16.30
2022-11-28T22:14:36.388Z,15.00
2022-11-28T22:20:43.569Z,16.88
2022-11-28T22:26:49.408Z,15.63
2022-11-28T22:32:53.000Z,17.77
2022-11-28T22:38:56.914Z,17.02
2022-11-28T22:45:01.666Z,17.08
2022-11-28T22:51:08.407Z,14.88
2022-11-28T22:57:11.739Z,12.73
2022-11-28T23:03:16.682Z,11.15
2022-11-28T23:09:20.248Z,13.73
2022-11-28T23:15:23.770Z,13.57
2022-11-28T23:21:30.852Z,13.38
2022-11-28T23:27:34.200Z,12.18
2022-11-28T23:33:37.772Z,12.27
2022-11-28T23:39:42.474Z,12.45
2022-11-28T23:45:45.879Z,12.27
2022-11-28T23:51:49.343Z,11.50
2022-11-28T23:57:54.117Z,11.30
